Time;durP1;ratioP1;P1;durP2;ratioP2;P2;SDS_P1;SDS_P2;PMS_P1;PMS_P2;Temp;Humidity;BMP_temperature;BMP_pressure;BME280_temperature;BME280_humidity;BME280_pressure;Samples;Min_cycle;Max_cycle;Signal;HPM_P1;HPM_P2
2023/01/05 00:02:23;;;;;;;5.05;2.50;;;11.00;99.90;;;;;;4973332;28;20094;-64
2023/01/05 00:04:49;;;;;;;24.55;3.90;;;10.90;99.90;;;;;;4974169;28;20030;-64
2023/01/05 00:07:15;;;;;;;23.13;2.63;;;10.90;99.90;;;;;;4974280;28;20097;-64
2023/01/05 00:09:41;;;;;;;7.88;1.92;;;10.90;99.90;;;;;;4974474;28;20046;-64
2023/01/05 00:23:07;;;;;;;13.20;5.40;;;11.00;99.90;;;;;;4974086;28;20496;-64
2023/01/05 00:25:37;;;;;;;33.53;2.55;;;11.00;99.90;;;;;;4973762;28;20035;-64
2023/01/05 00:28:03;;;;;;;45.15;5.97;;;11.00;99.90;;;;;;4974271;28;20035;-64
2023/01/05 00:30:33;;;;;;;10.32;2.60;;;11.00;99.90;;;;;;4974130;28;20038;-64
2023/01/05 00:33:00;;;;;;;3.72;1.08;;;11.10;99.90;;;;;;4972356;28;20054;-65
2023/01/05 00:35:26;;;;;;;11.77;2.63;;;11.00;99.90;;;;;;4972749;28;20019;-64
2023/01/05 00:37:53;;;;;;;32.72;5.68;;;11.10;99.90;;;;;;4972899;28;20026;-64
2023/01/05 00:40:20;;;;;;;35.78;3.78;;;11.10;99.90;;;;;;4973859;28;20026;-64
2023/01/05 00:42:46;;;;;;;5.25;2.42;;;11.10;99.90;;;;;;4973827;28;20062;-64
2023/01/05 00:45:14;;;;;;;8.75;3.38;;;11.20;99.90;;;;;;4972515;28;20435;-64
2023/01/05 00:47:41;;;;;;;10.55;3.28;;;11.20;99.90;;;;;;4974023;28;20140;-64
2023/01/05 00:50:11;;;;;;;20.23;3.40;;;11.20;99.90;;;;;;4973693;28;20019;-64
2023/01/05 00:52:37;;;;;;;29.38;3.63;;;11.10;99.90;;;;;;4972536;28;20515;-64
2023/01/05 00:55:03;;;;;;;4.55;1.33;;;11.20;99.90;;;;;;4973849;28;20023;-64
2023/01/05 00:57:29;;;;;;;11.10;2.70;;;11.20;99.90;;;;;;4956562;28;20026;-64
2023/01/05 00:59:55;;;;;;;0.60;0.47;;;11.20;99.90;;;;;;4972612;28;20034;-64
2023/01/05 01:02:21;;;;;;;27.58;3.83;;;11.10;99.90;;;;;;4973598;28;20085;-65
2023/01/05 01:04:47;;;;;;;30.77;5.88;;;11.10;99.90;;;;;;4973673;28;20023;-64
2023/01/05 01:07:12;;;;;;;13.57;1.85;;;11.10;99.90;;;;;;4973883;28;20047;-64
2023/01/05 01:09:39;;;;;;;15.52;2.72;;;11.10;99.90;;;;;;4973376;28;20030;-65
2023/01/05 01:12:05;;;;;;;24.27;2.92;;;11.10;99.90;;;;;;4973584;28;20031;-64
2023/01/05 01:14:31;;;;;;;15.75;5.15;;;11.00;99.90;;;;;;4972521;28;20525;-64
2023/01/05 01:16:57;;;;;;;15.90;2.25;;;11.10;99.90;;;;;;4972166;28;20595;-64
2023/01/05 01:19:24;;;;;;;4.18;0.50;;;11.00;99.90;;;;;;4973699;28;20365;-65
2023/01/05 01:21:50;;;;;;;22.92;5.00;;;11.10;99.90;;;;;;4964198;28;20031;-64
2023/01/05 01:24:27;;;;;;;14.02;3.50;;;11.10;99.90;;;;;;4954746;28;20039;-64
2023/01/05 01:26:54;;;;;;;14.95;3.03;;;11.00;99.90;;;;;;4957414;28;20027;-64
2023/01/05 01:29:20;;;;;;;17.45;3.13;;;11.00;99.90;;;;;;4956687;28;20067;-64
2023/01/05 01:31:48;;;;;;;21.77;4.57;;;11.00;99.90;;;;;;4955784;28;20465;-64
2023/01/05 01:34:14;;;;;;;18.40;3.25;;;11.00;99.90;;;;;;4952651;28;20023;-64
2023/01/05 01:36:41;;;;;;;3.72;0.88;;;10.90;99.90;;;;;;4951882;28;20031;-64
2023/01/05 01:39:07;;;;;;;3.05;2.30;;;11.00;99.90;;;;;;4941070;28;20027;-67
2023/01/05 01:41:35;;;;;;;15.75;2.35;;;11.00;99.90;;;;;;4943524;28;20038;-72
2023/01/05 01:44:22;;;;;;;18.02;2.83;;;11.00;99.90;;;;;;4956486;28;20015;-64
2023/01/05 01:46:48;;;;;;;22.00;5.38;;;10.90;99.90;;;;;;4954888;28;20480;-65
2023/01/05 01:49:14;;;;;;;7.18;2.92;;;10.90;99.90;;;;;;4944077;28;20438;-65
2023/01/05 01:51:44;;;;;;;11.93;1.15;;;10.90;99.90;;;;;;4958479;28;20023;-64
2023/01/05 01:54:14;;;;;;;13.02;1.90;;;10.80;99.90;;;;;;4958463;28;20027;-64
2023/01/05 01:56:51;;;;;;;6.55;2.75;;;10.80;99.90;;;;;;4956184;28;20491;-64
2023/01/05 01:59:18;;;;;;;5.50;3.85;;;10.90;99.90;;;;;;4956757;28;20020;-64
2023/01/05 02:01:44;;;;;;;27.70;5.93;;;11.00;99.90;;;;;;4955196;28;20399;-64
2023/01/05 02:04:10;;;;;;;22.38;2.97;;;11.00;99.90;;;;;;4958071;28;20023;-64
2023/01/05 02:06:37;;;;;;;8.68;2.42;;;11.00;99.90;;;;;;4964736;28;20023;-64
2023/01/05 02:09:04;;;;;;;5.13;1.95;;;11.00;99.90;;;;;;4969960;28;20452;-64
2023/01/05 02:11:53;;;;;;;16.92;3.97;;;11.10;99.90;;;;;;4955217;28;20042;-64
2023/01/05 02:14:24;;;;;;;16.25;2.65;;;11.00;99.90;;;;;;4957684;28;20038;-64
2023/01/05 02:17:15;;;;;;;11.75;3.88;;;11.10;99.90;;;;;;4970745;28;20396;-71
2023/01/05 02:19:44;;;;;;;7.65;2.92;;;11.10;99.90;;;;;;4961926;28;20029;-65
2023/01/05 02:22:25;;;;;;;27.58;3.45;;;11.10;99.90;;;;;;4976213;28;20049;-65
2023/01/05 02:24:58;;;;;;;;;;;11.10;99.90;;;;;;4975217;28;20495;-68
2023/01/05 02:27:45;;;;;;;5.57;1.58;;;11.10;99.90;;;;;;4966444;28;19929;-65
2023/01/05 02:30:39;;;;;;;12.80;3.13;;;11.10;99.90;;;;;;4989260;28;20030;-68
2023/01/05 02:33:11;;;;;;;;;;;11.20;99.90;;;;;;4945622;28;20038;-64
2023/01/05 02:35:58;;;;;;;;;;;11.20;99.90;;;;;;4966024;28;20371;-65
2023/01/05 02:38:39;;;;;;;13.65;2.90;;;11.20;99.90;;;;;;4974708;28;19913;-65
2023/01/05 02:41:20;;;;;;;4.25;1.80;;;11.20;99.90;;;;;;4975626;28;20041;-64
2023/01/05 02:43:46;;;;;;;7.03;1.85;;;11.20;99.90;;;;;;4974700;28;20023;-66
2023/01/05 02:46:12;;;;;;;24.77;3.92;;;11.30;99.90;;;;;;4975654;28;20030;-64
2023/01/05 02:48:40;;;;;;;7.40;2.97;;;11.20;99.90;;;;;;4974031;28;20039;-64
2023/01/05 02:51:13;;;;;;;32.13;4.88;;;11.20;99.90;;;;;;4974439;28;20022;-64
2023/01/05 02:53:44;;;;;;;19.23;3.25;;;11.20;99.90;;;;;;4975908;28;20050;-64
2023/01/05 02:56:22;;;;;;;;;;;11.30;99.90;;;;;;4974308;28;20042;-64
2023/01/05 02:58:54;;;;;;;39.97;4.00;;;11.20;99.90;;;;;;4974167;28;20355;-64
2023/01/05 03:01:50;;;;;;;9.05;3.75;;;11.30;99.90;;;;;;4975667;28;20433;-64
2023/01/05 03:04:30;;;;;;;1.63;1.10;;;11.30;99.90;;;;;;4975644;28;20778;-64
2023/01/05 03:07:02;;;;;;;7.53;2.38;;;11.30;99.90;;;;;;4974247;28;20130;-64
2023/01/05 03:09:35;;;;;;;15.70;2.67;;;11.20;99.90;;;;;;4974295;28;20089;-64
2023/01/05 03:15:02;;;;;;;7.43;2.95;;;11.30;99.90;;;;;;4973771;28;20045;-65
2023/01/05 03:17:53;;;;;;;5.88;1.75;;;11.20;99.90;;;;;;4974122;28;20026;-64
2023/01/05 03:20:23;;;;;;;4.23;3.03;;;11.20;99.90;;;;;;4975325;28;20038;-65
2023/01/05 03:37:43;;;;;;;26.80;3.65;;;11.20;99.90;;;;;;4975069;28;20034;-65
2023/01/05 03:40:20;;;;;;;23.48;4.35;;;11.20;99.90;;;;;;4956048;28;20026;-63
2023/01/05 03:42:47;;;;;;;23.58;4.95;;;11.20;99.90;;;;;;4972983;28;20023;-64
2023/01/05 03:45:15;;;;;;;17.92;3.35;;;11.10;99.90;;;;;;4972606;28;20031;-64
2023/01/05 03:47:41;;;;;;;9.15;2.35;;;11.20;99.90;;;;;;4973684;28;20121;-63
2023/01/05 03:50:08;;;;;;;22.65;5.43;;;11.20;99.90;;;;;;4957650;28;20023;-64
2023/01/05 03:52:34;;;;;;;30.83;4.97;;;11.20;99.90;;;;;;4971977;28;20073;-63
2023/01/05 03:55:00;;;;;;;32.90;5.75;;;11.10;99.90;;;;;;4973630;28;20388;-71
2023/01/05 03:57:26;;;;;;;35.47;3.72;;;11.10;99.90;;;;;;4973273;28;20019;-63
2023/01/05 03:59:52;;;;;;;16.25;4.95;;;11.10;99.90;;;;;;4974226;28;20563;-63
2023/01/05 04:02:19;;;;;;;31.35;5.07;;;11.10;99.90;;;;;;4972895;28;20031;-63
2023/01/05 04:04:46;;;;;;;12.13;4.22;;;11.10;99.90;;;;;;4973263;28;20066;-63
2023/01/05 04:07:12;;;;;;;25.08;3.42;;;11.10;99.90;;;;;;4974404;28;20400;-64
2023/01/05 04:09:39;;;;;;;9.70;2.80;;;11.10;99.90;;;;;;4973323;28;20027;-64
2023/01/05 04:12:05;;;;;;;7.40;1.38;;;11.20;99.90;;;;;;4973945;28;20595;-63
2023/01/05 04:14:36;;;;;;;17.23;3.67;;;11.20;99.90;;;;;;4957691;28;20415;-64
2023/01/05 04:17:02;;;;;;;10.82;2.22;;;11.20;99.90;;;;;;4973311;28;20289;-63
2023/01/05 04:19:28;;;;;;;29.25;6.10;;;11.20;99.90;;;;;;4972843;28;20031;-63
2023/01/05 04:21:55;;;;;;;14.35;3.25;;;11.20;99.90;;;;;;4972950;28;20023;-63
2023/01/05 04:24:22;;;;;;;19.02;2.95;;;11.20;99.90;;;;;;4973036;28;20041;-64
2023/01/05 04:26:48;;;;;;;24.38;4.72;;;11.20;99.90;;;;;;4972854;28;20388;-64
2023/01/05 04:29:15;;;;;;;18.85;3.20;;;11.20;99.90;;;;;;4972772;28;20039;-63
2023/01/05 04:31:44;;;;;;;15.52;4.00;;;11.10;99.90;;;;;;4972769;28;20035;-63
2023/01/05 04:34:10;;;;;;;7.38;1.73;;;11.10;99.90;;;;;;4972904;28;20056;-63
2023/01/05 04:36:37;;;;;;;10.05;1.60;;;11.20;99.90;;;;;;4972906;28;20110;-63
2023/01/05 04:39:03;;;;;;;11.75;2.42;;;11.20;99.90;;;;;;4972920;28;20457;-63
2023/01/05 04:41:29;;;;;;;13.70;3.50;;;11.20;99.90;;;;;;4972509;28;20090;-63
2023/01/05 04:43:55;;;;;;;11.82;3.30;;;11.10;99.90;;;;;;4972948;28;20430;-67
2023/01/05 04:46:22;;;;;;;25.60;3.70;;;11.10;99.90;;;;;;4973059;28;20115;-64
2023/01/05 04:48:50;;;;;;;4.22;0.95;;;11.10;99.90;;;;;;4972847;28;20039;-64
2023/01/05 04:51:18;;;;;;;10.82;1.38;;;11.10;99.90;;;;;;4972343;28;20109;-63
2023/01/05 04:53:44;;;;;;;15.70;4.10;;;11.10;99.90;;;;;;4972587;28;20171;-63
2023/01/05 04:56:15;;;;;;;15.30;2.80;;;11.20;99.90;;;;;;4972237;28;20034;-63
2023/01/05 04:58:43;;;;;;;22.13;3.85;;;11.10;99.90;;;;;;4972455;28;20089;-63
2023/01/05 05:01:09;;;;;;;41.42;5.32;;;11.10;99.90;;;;;;4972283;28;20034;-64
2023/01/05 05:03:37;;;;;;;5.93;2.55;;;11.00;99.90;;;;;;4956881;28;20077;-63
2023/01/05 05:06:05;;;;;;;23.38;3.13;;;11.00;99.90;;;;;;4972472;28;20022;-63
2023/01/05 05:08:32;;;;;;;10.57;2.42;;;10.90;99.90;;;;;;4972442;28;20398;-64
2023/01/05 05:10:59;;;;;;;18.77;3.45;;;10.90;99.90;;;;;;4953482;28;20023;-63
2023/01/05 05:13:27;;;;;;;9.38;1.58;;;10.90;99.90;;;;;;4955787;28;20027;-64
2023/01/05 05:15:53;;;;;;;2.25;1.23;;;10.80;99.90;;;;;;4956211;28;20034;-64
2023/01/05 05:18:21;;;;;;;18.83;2.00;;;10.80;99.90;;;;;;4958495;28;20023;-66
2023/01/05 05:20:50;;;;;;;31.20;2.55;;;10.90;99.90;;;;;;4959966;28;20026;-63
2023/01/05 05:23:18;;;;;;;3.30;2.72;;;10.90;99.90;;;;;;4940980;28;20112;-64
2023/01/05 05:25:44;;;;;;;25.52;3.90;;;10.90;99.90;;;;;;4960126;28;20536;-66
2023/01/05 05:28:10;;;;;;;19.33;4.05;;;10.80;99.90;;;;;;4972797;28;20035;-64
2023/01/05 05:30:39;;;;;;;8.77;2.95;;;10.80;99.90;;;;;;4957712;28;20019;-64
2023/01/05 05:33:05;;;;;;;18.65;3.65;;;10.80;99.90;;;;;;4958040;28;20098;-64
2023/01/05 05:35:30;;;;;;;8.55;2.08;;;10.80;99.90;;;;;;4962106;28;20024;-64
2023/01/05 05:37:57;;;;;;;18.27;3.42;;;10.80;99.90;;;;;;4971284;28;20035;-64
2023/01/05 05:40:25;;;;;;;19.35;3.72;;;10.70;99.90;;;;;;4968271;28;20019;-64
2023/01/05 05:42:51;;;;;;;36.90;7.25;;;10.70;99.90;;;;;;4967126;28;20083;-63
2023/01/05 05:45:17;;;;;;;4.47;2.30;;;10.70;99.90;;;;;;4956303;28;20023;-67
2023/01/05 05:47:43;;;;;;;0.68;0.57;;;10.70;99.90;;;;;;4959348;28;20066;-67
2023/01/05 05:50:09;;;;;;;22.88;4.05;;;10.70;99.90;;;;;;4960095;28;20473;-64
2023/01/05 05:52:35;;;;;;;6.65;2.85;;;10.60;99.90;;;;;;4957081;28;20347;-64
2023/01/05 05:55:01;;;;;;;2.55;0.73;;;10.60;99.90;;;;;;4957708;28;20404;-63
2023/01/05 05:57:26;;;;;;;37.85;8.50;;;10.50;99.90;;;;;;4956992;28;20408;-64
2023/01/05 05:59:52;;;;;;;5.80;1.45;;;10.60;99.90;;;;;;4955322;28;20045;-64
2023/01/05 06:02:18;;;;;;;18.25;3.88;;;10.60;99.90;;;;;;4961956;28;20031;-71
2023/01/05 06:04:44;;;;;;;26.95;5.28;;;10.60;99.90;;;;;;4965381;28;20677;-64
2023/01/05 06:07:10;;;;;;;16.13;3.90;;;10.60;99.90;;;;;;4961488;28;20027;-65
2023/01/05 06:09:36;;;;;;;7.60;1.60;;;10.60;99.90;;;;;;4957451;28;20178;-64
2023/01/05 06:12:02;;;;;;;13.10;3.05;;;10.60;99.90;;;;;;4957070;28;20023;-65
2023/01/05 06:14:28;;;;;;;46.45;8.75;;;10.70;99.90;;;;;;4955220;28;20106;-64
2023/01/05 06:16:54;;;;;;;7.28;3.70;;;10.70;99.90;;;;;;4956304;28;20186;-64
2023/01/05 06:19:20;;;;;;;19.70;2.13;;;10.70;99.90;;;;;;4960876;28;20047;-65
2023/01/05 06:21:45;;;;;;;11.60;4.05;;;10.70;99.90;;;;;;4963760;28;20042;-68
2023/01/05 06:24:11;;;;;;;7.32;1.70;;;10.70;99.90;;;;;;4959013;28;20031;-64
2023/01/05 06:26:37;;;;;;;5.75;2.63;;;10.70;99.90;;;;;;4970084;28;20111;-64
2023/01/05 06:29:03;;;;;;;2.55;1.48;;;10.70;99.90;;;;;;4959379;28;20082;-63
2023/01/05 06:31:28;;;;;;;15.32;4.22;;;10.60;99.90;;;;;;4959729;28;20101;-64
2023/01/05 06:33:54;;;;;;;49.05;8.18;;;10.60;99.90;;;;;;4968910;28;20030;-63
2023/01/05 06:36:20;;;;;;;10.65;3.92;;;10.60;99.90;;;;;;4970840;28;20436;-64
2023/01/05 06:38:45;;;;;;;20.77;3.83;;;10.50;99.90;;;;;;4956148;28;20059;-63
2023/01/05 06:41:11;;;;;;;19.08;3.80;;;10.50;99.90;;;;;;4959175;28;20035;-63
2023/01/05 06:43:37;;;;;;;23.15;4.00;;;10.50;99.90;;;;;;4958315;28;20030;-63
2023/01/05 06:46:03;;;;;;;24.63;4.72;;;10.50;99.90;;;;;;4957996;28;20023;-64
2023/01/05 06:48:29;;;;;;;26.52;4.75;;;10.50;99.90;;;;;;4960168;28;20396;-63
2023/01/05 06:50:55;;;;;;;35.80;5.68;;;10.50;99.90;;;;;;4955376;28;20468;-64
2023/01/05 06:53:20;;;;;;;16.00;2.22;;;10.50;99.90;;;;;;4956050;28;20042;-64
2023/01/05 06:55:46;;;;;;;21.48;5.00;;;10.60;99.90;;;;;;4958581;28;20031;-64
2023/01/05 06:58:12;;;;;;;44.95;6.00;;;10.60;99.90;;;;;;4958404;28;20031;-63
2023/01/05 07:00:38;;;;;;;11.48;2.83;;;10.60;99.90;;;;;;4956471;28;20040;-63
2023/01/05 07:03:06;;;;;;;32.60;3.63;;;10.60;99.90;;;;;;4958350;28;20038;-63
2023/01/05 07:05:32;;;;;;;38.38;5.68;;;10.60;99.90;;;;;;4958059;28;20031;-63
2023/01/05 07:07:58;;;;;;;20.92;4.45;;;10.60;99.90;;;;;;4957247;28;20489;-63
2023/01/05 07:10:23;;;;;;;15.30;3.50;;;10.60;99.90;;;;;;4958506;28;20016;-63
2023/01/05 07:12:49;;;;;;;3.13;1.52;;;10.60;99.90;;;;;;4956440;28;20400;-63
2023/01/05 07:15:15;;;;;;;10.30;2.97;;;10.60;99.90;;;;;;4955859;28;20053;-63
2023/01/05 07:17:41;;;;;;;6.55;1.73;;;10.60;99.90;;;;;;4957703;28;20078;-64
2023/01/05 07:20:07;;;;;;;15.55;3.38;;;10.60;99.90;;;;;;4955350;28;20432;-64
2023/01/05 07:22:33;;;;;;;51.65;8.65;;;10.60;99.90;;;;;;4956256;28;20050;-64
2023/01/05 07:24:59;;;;;;;12.63;4.55;;;10.60;99.90;;;;;;4955914;28;20082;-64
2023/01/05 07:27:25;;;;;;;30.60;4.03;;;10.60;99.90;;;;;;4955796;28;20548;-63
2023/01/05 07:29:51;;;;;;;19.75;3.78;;;10.50;99.90;;;;;;4957703;28;20023;-63
2023/01/05 07:32:16;;;;;;;11.73;2.03;;;10.50;99.90;;;;;;4958348;28;20421;-63
2023/01/05 07:34:42;;;;;;;19.38;3.85;;;10.40;99.90;;;;;;4971027;28;20018;-64
2023/01/05 07:37:08;;;;;;;13.38;3.78;;;10.30;99.90;;;;;;4971740;28;20074;-64
2023/01/05 07:39:34;;;;;;;12.23;2.67;;;10.30;99.90;;;;;;4973891;28;20034;-64
2023/01/05 07:42:00;;;;;;;15.68;3.22;;;10.30;99.90;;;;;;4972865;28;20039;-64
2023/01/05 07:44:26;;;;;;;23.42;5.78;;;10.20;99.90;;;;;;4971851;28;20029;-62
2023/01/05 07:46:52;;;;;;;31.83;4.25;;;10.20;99.90;;;;;;4962070;28;20429;-63
2023/01/05 07:49:18;;;;;;;23.90;5.35;;;10.10;99.90;;;;;;4969091;28;20126;-62
2023/01/05 07:51:44;;;;;;;12.95;3.08;;;10.10;99.90;;;;;;4969984;28;20110;-63
2023/01/05 07:54:09;;;;;;;41.50;6.10;;;10.00;99.90;;;;;;4971095;28;20034;-63
2023/01/05 07:56:38;;;;;;;11.38;2.70;;;10.10;99.90;;;;;;4967587;28;20498;-63
2023/01/05 07:59:04;;;;;;;37.45;5.60;;;10.10;99.90;;;;;;4968067;28;20035;-63
2023/01/05 08:01:29;;;;;;;22.10;4.30;;;10.00;99.90;;;;;;4973488;28;20022;-64
2023/01/05 08:03:55;;;;;;;19.33;3.65;;;10.00;99.90;;;;;;4973447;28;20498;-64
2023/01/05 08:06:21;;;;;;;18.00;3.60;;;10.10;99.90;;;;;;4966791;28;20057;-64
2023/01/05 08:08:47;;;;;;;7.65;2.80;;;10.10;99.90;;;;;;4966519;28;20038;-64
2023/01/05 08:11:15;;;;;;;11.00;3.95;;;10.00;99.90;;;;;;4973568;28;20526;-63
2023/01/05 08:13:59;;;;;;;3.28;2.03;;;10.00;99.90;;;;;;4970896;28;20038;-64
2023/01/05 08:16:30;;;;;;;4.60;1.88;;;10.10;99.90;;;;;;4973630;28;20023;-66
2023/01/05 08:18:56;;;;;;;21.40;3.90;;;10.10;99.90;;;;;;4972959;28;20034;-64
2023/01/05 08:21:22;;;;;;;15.35;2.70;;;10.10;99.90;;;;;;4973198;28;20050;-64
2023/01/05 08:23:49;;;;;;;0.82;0.80;;;10.10;99.90;;;;;;4973513;28;20030;-64
2023/01/05 08:26:17;;;;;;;17.63;3.85;;;10.10;99.90;;;;;;4973543;28;20065;-63
2023/01/05 08:28:43;;;;;;;23.00;3.40;;;10.00;99.90;;;;;;4973341;28;20480;-64
2023/01/05 08:31:18;;;;;;;18.13;5.15;;;10.10;99.90;;;;;;4971752;28;20045;-64
2023/01/05 08:33:44;;;;;;;26.05;4.60;;;10.10;99.90;;;;;;4967506;28;20031;-64
2023/01/05 08:36:15;;;;;;;10.18;3.65;;;10.00;99.90;;;;;;4955971;28;20019;-64
2023/01/05 08:38:47;;;;;;;16.48;5.50;;;10.00;99.90;;;;;;4964096;28;20035;-64
2023/01/05 08:41:23;;;;;;;18.55;5.15;;;10.00;99.90;;;;;;4973458;28;20150;-63
2023/01/05 08:43:54;;;;;;;6.70;3.78;;;10.00;99.90;;;;;;4973877;28;20026;-63
2023/01/05 08:46:23;;;;;;;1.17;0.80;;;10.00;99.90;;;;;;4972890;28;20026;-65
2023/01/05 08:48:54;;;;;;;20.98;3.45;;;10.00;99.90;;;;;;4968520;28;20126;-65
2023/01/05 08:51:21;;;;;;;24.98;5.25;;;10.00;99.90;;;;;;4970540;28;20391;-64
2023/01/05 08:53:47;;;;;;;4.30;1.13;;;10.00;99.90;;;;;;4973366;28;20039;-64
2023/01/05 08:56:13;;;;;;;23.40;5.22;;;10.20;99.90;;;;;;4973540;28;20530;-64
2023/01/05 08:58:39;;;;;;;1.00;0.90;;;10.20;99.90;;;;;;4973536;28;20018;-64
2023/01/05 09:01:12;;;;;;;0.90;0.32;;;10.30;99.90;;;;;;4971825;28;20376;-64
2023/01/05 09:03:38;;;;;;;10.80;0.90;;;10.30;99.90;;;;;;4986722;28;20445;-64
2023/01/05 09:06:08;;;;;;;0.10;0.10;;;10.40;99.90;;;;;;4973325;28;20023;-64
2023/01/05 09:08:34;;;;;;;1.58;0.60;;;10.40;99.90;;;;;;4971983;28;20121;-64
2023/01/05 09:11:21;;;;;;;0.47;0.47;;;10.40;99.90;;;;;;4972277;28;20038;-65
2023/01/05 09:13:52;;;;;;;11.15;2.67;;;10.60;99.90;;;;;;4970734;28;20054;-64
2023/01/05 09:16:21;;;;;;;0.50;0.30;;;10.50;99.90;;;;;;4968351;28;20026;-65
2023/01/05 09:18:47;;;;;;;18.38;1.85;;;10.50;99.90;;;;;;4973365;28;20039;-64
2023/01/05 09:21:13;;;;;;;24.38;8.88;;;10.70;99.90;;;;;;4972993;28;20030;-68
2023/01/05 09:23:40;;;;;;;0.38;0.30;;;10.50;99.90;;;;;;4971467;28;20039;-68
2023/01/05 09:26:08;;;;;;;8.02;2.20;;;10.60;99.90;;;;;;4972660;28;20468;-64
2023/01/05 09:28:35;;;;;;;6.68;2.60;;;10.50;99.90;;;;;;4973094;28;20596;-64
2023/01/05 09:31:17;;;;;;;10.55;3.25;;;10.50;99.90;;;;;;4971678;28;20022;-64
2023/01/05 09:33:44;;;;;;;;;;;10.40;99.90;;;;;;4978550;28;20424;-64
2023/01/05 09:36:11;;;;;;;11.48;1.88;;;10.50;99.90;;;;;;4972960;28;20375;-64
2023/01/05 09:38:37;;;;;;;23.27;3.00;;;10.50;99.90;;;;;;4973336;28;20030;-64
2023/01/05 09:41:19;;;;;;;13.57;3.70;;;10.50;99.90;;;;;;4968814;28;20468;-65
2023/01/05 09:43:47;;;;;;;36.13;5.47;;;10.50;99.90;;;;;;4954883;28;20042;-64
2023/01/05 09:46:17;;;;;;;15.23;2.95;;;10.50;99.90;;;;;;4955025;28;20099;-65
2023/01/05 09:48:51;;;;;;;14.75;2.50;;;10.40;99.90;;;;;;4959675;28;20197;-64
2023/01/05 09:51:17;;;;;;;14.45;0.75;;;10.40;99.90;;;;;;4954990;28;20027;-65
2023/01/05 09:53:42;;;;;;;6.60;2.30;;;10.50;99.90;;;;;;4956978;28;20034;-65
2023/01/05 09:56:20;;;;;;;2.72;2.30;;;10.60;99.90;;;;;;4954011;28;20028;-65
2023/01/05 09:58:48;;;;;;;22.00;3.70;;;10.50;99.90;;;;;;4955377;28;20502;-64
2023/01/05 10:01:16;;;;;;;10.95;4.10;;;10.50;99.90;;;;;;4956345;28;20065;-64
2023/01/05 10:03:59;;;;;;;2.50;1.40;;;10.50;99.90;;;;;;4956668;28;20030;-64
2023/01/05 10:06:28;;;;;;;12.32;2.50;;;10.60;99.90;;;;;;4963490;28;20593;-64
2023/01/05 10:08:55;;;;;;;18.50;4.13;;;10.70;99.90;;;;;;4961016;28;20082;-63
2023/01/05 10:14:27;;;;;;;15.95;3.45;;;11.00;99.90;;;;;;4964756;28;20061;-63
2023/01/05 10:16:53;;;;;;;17.58;3.65;;;10.90;99.90;;;;;;4968977;28;20062;-63
2023/01/05 10:19:19;;;;;;;16.90;4.22;;;10.90;99.90;;;;;;4974208;28;20468;-63
2023/01/05 10:21:57;;;;;;;9.40;2.53;;;10.80;99.90;;;;;;4968882;28;20034;-63
2023/01/05 10:24:50;;;;;;;7.55;2.47;;;10.70;99.90;;;;;;4963514;28;20058;-63
2023/01/05 10:27:25;;;;;;;0.10;0.10;;;10.80;99.90;;;;;;4968192;28;20082;-63
2023/01/05 10:30:24;;;;;;;26.58;4.60;;;10.90;99.90;;;;;;4965443;28;20554;-64
2023/01/05 10:33:02;;;;;;;7.13;1.67;;;11.00;99.90;;;;;;4973425;28;20033;-64
2023/01/05 10:36:12;;;;;;;2.10;1.58;;;11.30;99.90;;;;;;4972884;28;20027;-64
2023/01/05 10:39:02;;;;;;;19.00;2.90;;;11.30;99.90;;;;;;4968182;28;20503;-71
2023/01/05 10:41:52;;;;;;;10.32;3.35;;;11.30;99.90;;;;;;4975372;28;20038;-63
2023/01/05 10:44:45;;;;;;;0.10;0.10;;;11.50;99.90;;;;;;4974334;28;20361;-69
2023/01/05 10:47:12;;;;;;;11.05;2.83;;;11.40;99.90;;;;;;4975382;28;20026;-63
2023/01/05 10:49:42;;;;;;;31.42;3.60;;;11.40;99.90;;;;;;4976044;28;20042;-64
2023/01/05 10:52:13;;;;;;;15.95;3.97;;;11.30;99.90;;;;;;4975833;28;20110;-70
2023/01/05 10:54:42;;;;;;;4.53;0.93;;;11.40;99.90;;;;;;4976162;28;20039;-64
2023/01/05 10:57:29;;;;;;;1.17;0.47;;;11.70;99.90;;;;;;4975559;28;20034;-64
2023/01/05 11:00:20;;;;;;;19.48;4.60;;;11.70;99.90;;;;;;4975817;28;20097;-64
2023/01/05 11:03:01;;;;;;;11.43;3.45;;;11.50;99.90;;;;;;4975227;28;20038;-63
2023/01/05 11:05:41;;;;;;;6.32;2.72;;;11.50;99.90;;;;;;4967344;28;20026;-64
2023/01/05 11:08:27;;;;;;;16.23;2.83;;;11.40;99.90;;;;;;4964433;28;20038;-64
2023/01/05 11:11:06;;;;;;;16.67;2.83;;;11.70;99.90;;;;;;4981440;28;20035;-64
2023/01/05 11:13:34;;;;;;;12.68;1.90;;;11.90;99.90;;;;;;4965823;28;20035;-64
2023/01/05 11:16:14;;;;;;;1.58;1.20;;;11.80;99.90;;;;;;4974460;28;20027;-64
2023/01/05 11:18:46;;;;;;;0.10;0.10;;;12.00;99.90;;;;;;4974747;28;20026;-64
2023/01/05 11:21:16;;;;;;;4.00;2.50;;;12.20;99.90;;;;;;4974625;28;20476;-64
2023/01/05 11:23:50;;;;;;;22.27;5.22;;;12.40;99.90;;;;;;4973384;28;20500;-64
2023/01/05 11:26:21;;;;;;;27.05;5.78;;;12.90;99.90;;;;;;4974329;28;20034;-64
2023/01/05 11:28:56;;;;;;;15.80;3.00;;;13.00;99.90;;;;;;4974608;28;20039;-64
2023/01/05 11:31:22;;;;;;;26.70;3.90;;;13.00;99.90;;;;;;4974120;28;20490;-64
2023/01/05 11:33:56;;;;;;;14.05;2.75;;;12.80;99.90;;;;;;4965516;28;20041;-64
2023/01/05 11:36:22;;;;;;;4.75;2.58;;;12.60;99.90;;;;;;4968811;28;20463;-64
2023/01/05 11:38:54;;;;;;;5.70;0.38;;;12.50;99.90;;;;;;4969856;28;20031;-64
2023/01/05 11:41:23;;;;;;;5.10;2.33;;;12.30;99.90;;;;;;4973885;28;20023;-64
2023/01/05 11:43:53;;;;;;;12.18;1.48;;;12.20;99.90;;;;;;4974837;28;20064;-64
2023/01/05 11:46:20;;;;;;;31.65;4.60;;;12.20;99.90;;;;;;4974633;28;20153;-64
2023/01/05 11:48:53;;;;;;;15.95;1.75;;;12.20;99.90;;;;;;4974680;28;20031;-64
2023/01/05 11:51:38;;;;;;;21.10;3.47;;;12.30;99.90;;;;;;4974239;28;20035;-64
2023/01/05 11:54:24;;;;;;;2.35;2.22;;;12.20;99.90;;;;;;4974588;28;20102;-64
2023/01/05 11:57:15;;;;;;;3.25;1.70;;;12.40;99.90;;;;;;4974529;28;20035;-64
2023/01/05 11:59:42;;;;;;;11.55;3.17;;;12.40;99.90;;;;;;4963733;28;20046;-64
2023/01/05 12:02:17;;;;;;;23.67;4.53;;;12.40;99.90;;;;;;4971153;28;20114;-64
2023/01/05 12:05:01;;;;;;;26.33;3.50;;;12.40;99.90;;;;;;4974256;28;20031;-66
2023/01/05 12:07:42;;;;;;;21.92;3.25;;;12.20;99.90;;;;;;4973069;28;20046;-64
2023/01/05 12:10:11;;;;;;;1.73;1.57;;;11.90;99.90;;;;;;4969424;28;20132;-64
2023/01/05 12:12:42;;;;;;;1.08;0.40;;;12.00;99.90;;;;;;4954911;28;20070;-66
2023/01/05 12:15:20;;;;;;;9.13;1.92;;;12.10;99.90;;;;;;4953791;28;20456;-64
2023/01/05 12:17:58;;;;;;;23.75;2.60;;;12.00;99.90;;;;;;4957186;28;20522;-64
2023/01/05 12:20:23;;;;;;;7.07;3.00;;;12.10;99.90;;;;;;4953928;28;20031;-65
2023/01/05 12:23:26;;;;;;;19.33;2.38;;;12.00;99.90;;;;;;4963815;28;20093;-64
2023/01/05 12:26:24;;;;;;;1.30;0.75;;;12.10;99.90;;;;;;4972966;28;20086;-64
2023/01/05 12:29:30;;;;;;;7.13;2.70;;;12.20;99.90;;;;;;4973825;28;20058;-64
2023/01/05 12:32:14;;;;;;;1.40;1.27;;;12.20;99.90;;;;;;4972636;28;20107;-64
2023/01/05 12:35:19;;;;;;;18.02;4.45;;;12.20;99.90;;;;;;4971810;28;20114;-64
2023/01/05 12:37:50;;;;;;;2.45;0.80;;;12.10;99.90;;;;;;4973518;28;20488;-64
2023/01/05 12:40:54;;;;;;;27.98;3.50;;;12.30;99.90;;;;;;4977886;28;20034;-64
2023/01/05 12:43:48;;;;;;;0.05;0.05;;;12.20;99.90;;;;;;4978756;28;20027;-64
2023/01/05 12:46:28;;;;;;;13.25;3.75;;;12.20;99.90;;;;;;4973489;28;20034;-65
2023/01/05 12:49:17;;;;;;;3.17;1.85;;;12.20;99.90;;;;;;4955230;28;20121;-64
2023/01/05 12:52:01;;;;;;;17.88;1.55;;;12.20;99.90;;;;;;4958131;28;20031;-64
2023/01/05 12:54:40;;;;;;;14.80;1.60;;;12.20;99.90;;;;;;4964803;28;20050;-64
2023/01/05 12:57:36;;;;;;;3.92;1.48;;;12.20;99.90;;;;;;4971007;28;20390;-65
2023/01/05 13:00:11;;;;;;;0.20;0.10;;;12.30;99.90;;;;;;4972054;28;20042;-65
2023/01/05 13:02:43;;;;;;;14.43;1.48;;;12.50;99.90;;;;;;4967708;28;20054;-64
2023/01/05 13:05:31;;;;;;;0.00;0.00;;;12.60;99.90;;;;;;4964126;28;20426;-64
2023/01/05 13:08:02;;;;;;;0.00;0.00;;;12.60;99.90;;;;;;4960771;28;20532;-67
2023/01/05 13:10:37;;;;;;;15.45;3.85;;;12.90;99.90;;;;;;4971958;28;20468;-66
2023/01/05 13:13:16;;;;;;;0.13;0.13;;;12.70;99.90;;;;;;4974146;28;20030;-65
2023/01/05 13:15:53;;;;;;;10.40;2.42;;;12.50;99.90;;;;;;4973679;28;20082;-65
2023/01/05 13:18:20;;;;;;;12.10;3.65;;;12.60;99.90;;;;;;4973871;28;20046;-67
2023/01/05 13:21:00;;;;;;;9.23;2.20;;;12.60;99.90;;;;;;4973104;28;20042;-64
2023/01/05 13:23:39;;;;;;;30.98;4.18;;;12.70;99.90;;;;;;4973736;28;20046;-64
2023/01/05 13:26:09;;;;;;;0.35;0.35;;;12.60;99.90;;;;;;4970750;28;20023;-64
2023/01/05 13:28:36;;;;;;;5.38;1.00;;;12.40;99.90;;;;;;4973592;28;20038;-64
2023/01/05 13:31:10;;;;;;;12.55;1.08;;;12.40;99.90;;;;;;4973111;28;20106;-64
2023/01/05 13:33:57;;;;;;;0.57;0.57;;;12.40;99.90;;;;;;4975872;28;20540;-70